Meteo Giornale » Osservazioni meteo Italia » Capo Bellavista

ore: 13:55 - Osservazioni Meteo Capo Bellavista
Lat. 39° 56' N Lon. 9° 43' E Alt. 138 metri s.l.m.

sereno Europe/Rome

30 °C

Sereno

Temp. 24 Ore

21 °C

30 °C

Sud

11.1 Km/h

Dew point 23 °C

Umidità 66 %

Visibilità  10 Km

Il sole sorge alle ore 07:02

Il sole tramonta alle ore 19:28

Data e Ora Cielo e Fenomeni T °C DP °C Um. % Pres. hPa Vis. km Vento km/h
Oggi h: 13:55 sereno Sereno 30 23 66 1016 10 S 11.1
Oggi h: 12:55 sereno Sereno 30 23 66 1016 10 S/SO 11.1
Oggi h: 11:55 sereno Sereno 28 22 69 1016 10 S 7.4
Oggi h: 10:55 sereno Sereno 25 21 78 1016 10 S/SO 13
Oggi h: 09:55 sereno Sereno 24 21 83 1016 10 S/SO 9.3
Oggi h: 08:55 sereno Sereno 24 21 83 1016 10 N 5.5
Oggi h: 07:55 sereno Sereno 21 17 77 1016 10 O/SO 7.4
Oggi h: 05:55 sereno Sereno 22 19 83 1016 10 O/NO 7.4
Oggi h: 04:55 sereno Sereno 23 20 83 1017 10 N 5.5
Oggi h: 03:55 sereno Sereno 23 20 83 1017 10 N 3.7
Oggi h: 02:55 sereno Sereno 22 20 88 1017 10 N 3.7
Oggi h: 01:55 sereno Sereno 22 20 88 1017 10 NO 11.1
Oggi h: 00:55 sereno Sereno 23 21 88 1018 10 NO 13
Ieri h: 23:55 sereno Sereno 23 20 83 1018 10 O/NO 7.4
Ieri h: 22:55 sereno Sereno 23 21 88 1018 10 N 5.5
Ieri h: 21:55 sereno Sereno 24 21 83 1017 10 SO 11.1
Ieri h: 20:55 sereno Sereno 25 22 83 1017 10 SO 14.8
Ieri h: 18:55 sereno Sereno 26 20 69 1017 10 S/SO 18.5
Ieri h: 17:55 sereno Sereno 29 21 62 1018 10 S 14.8
Ieri h: 16:55 sereno Sereno 30 22 62 1019 10 S 13
Ieri h: 15:55 sereno Sereno 30 21 58 1019 10 N 7.4